sensor_id;sensor_type;location;lat;lon;timestamp;P1;durP1;ratioP1;P2;durP2;ratioP2
11731;SDS011;5922;53.734;10.258;2023-01-16T00:02:11;2.87;;;1.77;;
11731;SDS011;5922;53.734;10.258;2023-01-16T00:04:38;2.20;;;1.80;;
11731;SDS011;5922;53.734;10.258;2023-01-16T00:07:07;1.50;;;1.40;;
11731;SDS011;5922;53.734;10.258;2023-01-16T00:09:34;2.23;;;1.80;;
11731;SDS011;5922;53.734;10.258;2023-01-16T00:12:01;3.63;;;1.70;;
11731;SDS011;5922;53.734;10.258;2023-01-16T00:14:29;4.73;;;2.00;;
11731;SDS011;5922;53.734;10.258;2023-01-16T00:16:56;2.97;;;1.90;;
11731;SDS011;5922;53.734;10.258;2023-01-16T00:19:23;3.00;;;2.10;;
11731;SDS011;5922;53.734;10.258;2023-01-16T00:21:50;3.53;;;2.00;;
11731;SDS011;5922;53.734;10.258;2023-01-16T00:24:19;1.97;;;1.77;;
11731;SDS011;5922;53.734;10.258;2023-01-16T00:26:49;3.40;;;2.10;;
11731;SDS011;5922;53.734;10.258;2023-01-16T00:29:16;3.10;;;1.90;;
11731;SDS011;5922;53.734;10.258;2023-01-16T00:31:44;4.70;;;2.33;;
11731;SDS011;5922;53.734;10.258;2023-01-16T00:34:11;3.83;;;2.10;;
11731;SDS011;5922;53.734;10.258;2023-01-16T00:36:38;2.93;;;2.30;;
11731;SDS011;5922;53.734;10.258;2023-01-16T00:39:05;3.37;;;2.20;;
11731;SDS011;5922;53.734;10.258;2023-01-16T00:41:34;5.13;;;2.17;;
11731;SDS011;5922;53.734;10.258;2023-01-16T00:44:01;3.37;;;2.47;;
11731;SDS011;5922;53.734;10.258;2023-01-16T00:46:28;4.03;;;2.00;;
11731;SDS011;5922;53.734;10.258;2023-01-16T00:48:56;3.60;;;2.40;;
11731;SDS011;5922;53.734;10.258;2023-01-16T00:51:23;4.90;;;2.40;;
11731;SDS011;5922;53.734;10.258;2023-01-16T00:53:50;2.83;;;2.30;;
11731;SDS011;5922;53.734;10.258;2023-01-16T00:56:18;3.80;;;2.40;;
11731;SDS011;5922;53.734;10.258;2023-01-16T00:58:46;3.27;;;2.93;;
11731;SDS011;5922;53.734;10.258;2023-01-16T01:01:13;3.00;;;2.70;;
11731;SDS011;5922;53.734;10.258;2023-01-16T01:03:41;6.37;;;3.10;;
11731;SDS011;5922;53.734;10.258;2023-01-16T01:06:09;6.10;;;3.23;;
11731;SDS011;5922;53.734;10.258;2023-01-16T01:08:37;4.83;;;3.10;;
11731;SDS011;5922;53.734;10.258;2023-01-16T01:11:05;5.00;;;3.40;;
11731;SDS011;5922;53.734;10.258;2023-01-16T01:13:33;4.37;;;3.23;;
11731;SDS011;5922;53.734;10.258;2023-01-16T01:16:01;3.30;;;2.97;;
11731;SDS011;5922;53.734;10.258;2023-01-16T01:18:29;4.20;;;3.17;;
11731;SDS011;5922;53.734;10.258;2023-01-16T01:20:56;3.50;;;3.17;;
11731;SDS011;5922;53.734;10.258;2023-01-16T01:23:23;3.87;;;3.43;;
11731;SDS011;5922;53.734;10.258;2023-01-16T01:25:51;4.53;;;3.43;;
11731;SDS011;5922;53.734;10.258;2023-01-16T01:28:18;4.37;;;3.70;;
11731;SDS011;5922;53.734;10.258;2023-01-16T01:30:45;6.00;;;3.50;;
11731;SDS011;5922;53.734;10.258;2023-01-16T01:33:14;7.67;;;3.70;;
11731;SDS011;5922;53.734;10.258;2023-01-16T01:35:41;4.60;;;3.57;;
11731;SDS011;5922;53.734;10.258;2023-01-16T01:38:08;6.33;;;3.90;;
11731;SDS011;5922;53.734;10.258;2023-01-16T01:40:36;8.10;;;3.70;;
11731;SDS011;5922;53.734;10.258;2023-01-16T01:43:07;5.93;;;3.07;;
11731;SDS011;5922;53.734;10.258;2023-01-16T01:45:35;6.70;;;2.93;;
11731;SDS011;5922;53.734;10.258;2023-01-16T01:48:03;6.13;;;3.20;;
11731;SDS011;5922;53.734;10.258;2023-01-16T01:50:36;6.93;;;2.93;;
11731;SDS011;5922;53.734;10.258;2023-01-16T01:53:06;6.10;;;2.77;;
11731;SDS011;5922;53.734;10.258;2023-01-16T01:55:34;5.37;;;2.50;;
11731;SDS011;5922;53.734;10.258;2023-01-16T01:58:02;4.73;;;2.40;;
11731;SDS011;5922;53.734;10.258;2023-01-16T02:00:31;6.97;;;2.50;;
11731;SDS011;5922;53.734;10.258;2023-01-16T02:02:59;5.67;;;2.63;;
11731;SDS011;5922;53.734;10.258;2023-01-16T02:05:28;6.17;;;2.30;;
11731;SDS011;5922;53.734;10.258;2023-01-16T02:07:58;3.70;;;2.10;;
11731;SDS011;5922;53.734;10.258;2023-01-16T02:10:29;5.57;;;2.33;;
11731;SDS011;5922;53.734;10.258;2023-01-16T02:12:57;4.40;;;2.10;;
11731;SDS011;5922;53.734;10.258;2023-01-16T02:15:24;3.43;;;2.07;;
11731;SDS011;5922;53.734;10.258;2023-01-16T02:17:51;7.60;;;2.60;;
11731;SDS011;5922;53.734;10.258;2023-01-16T02:20:39;6.17;;;2.17;;
11731;SDS011;5922;53.734;10.258;2023-01-16T02:26:12;4.27;;;2.00;;
11731;SDS011;5922;53.734;10.258;2023-01-16T02:31:35;3.70;;;2.10;;
11731;SDS011;5922;53.734;10.258;2023-01-16T02:34:09;3.60;;;2.10;;
11731;SDS011;5922;53.734;10.258;2023-01-16T02:36:42;4.10;;;2.47;;
11731;SDS011;5922;53.734;10.258;2023-01-16T02:39:13;4.07;;;2.40;;
11731;SDS011;5922;53.734;10.258;2023-01-16T02:41:46;4.13;;;2.40;;
11731;SDS011;5922;53.734;10.258;2023-01-16T02:44:15;4.60;;;2.50;;
11731;SDS011;5922;53.734;10.258;2023-01-16T02:46:47;6.27;;;2.20;;
11731;SDS011;5922;53.734;10.258;2023-01-16T02:49:19;4.60;;;2.60;;
11731;SDS011;5922;53.734;10.258;2023-01-16T02:51:49;3.73;;;2.10;;
11731;SDS011;5922;53.734;10.258;2023-01-16T02:54:22;3.30;;;2.00;;
11731;SDS011;5922;53.734;10.258;2023-01-16T02:56:51;4.60;;;2.20;;
11731;SDS011;5922;53.734;10.258;2023-01-16T02:59:20;3.73;;;2.30;;
11731;SDS011;5922;53.734;10.258;2023-01-16T03:01:50;4.70;;;2.30;;
11731;SDS011;5922;53.734;10.258;2023-01-16T03:07:04;3.60;;;2.07;;
11731;SDS011;5922;53.734;10.258;2023-01-16T03:09:37;4.53;;;2.00;;
11731;SDS011;5922;53.734;10.258;2023-01-16T03:12:11;3.73;;;2.00;;
11731;SDS011;5922;53.734;10.258;2023-01-16T03:14:42;7.37;;;2.40;;
11731;SDS011;5922;53.734;10.258;2023-01-16T03:17:21;5.20;;;2.20;;
11731;SDS011;5922;53.734;10.258;2023-01-16T03:19:56;5.00;;;2.50;;
11731;SDS011;5922;53.734;10.258;2023-01-16T03:22:30;3.77;;;1.83;;
11731;SDS011;5922;53.734;10.258;2023-01-16T03:25:03;3.90;;;1.50;;
11731;SDS011;5922;53.734;10.258;2023-01-16T03:27:38;2.67;;;1.50;;
11731;SDS011;5922;53.734;10.258;2023-01-16T03:30:08;3.13;;;1.67;;
11731;SDS011;5922;53.734;10.258;2023-01-16T03:32:39;5.23;;;1.93;;
11731;SDS011;5922;53.734;10.258;2023-01-16T03:35:08;4.27;;;2.27;;
11731;SDS011;5922;53.734;10.258;2023-01-16T03:37:38;4.70;;;2.10;;
11731;SDS011;5922;53.734;10.258;2023-01-16T03:40:07;6.13;;;2.30;;
11731;SDS011;5922;53.734;10.258;2023-01-16T03:42:36;5.07;;;1.80;;
11731;SDS011;5922;53.734;10.258;2023-01-16T03:45:06;4.53;;;1.90;;
11731;SDS011;5922;53.734;10.258;2023-01-16T03:47:34;4.27;;;2.13;;
11731;SDS011;5922;53.734;10.258;2023-01-16T03:50:05;3.13;;;1.53;;
11731;SDS011;5922;53.734;10.258;2023-01-16T03:52:34;4.07;;;1.60;;
11731;SDS011;5922;53.734;10.258;2023-01-16T03:55:04;4.90;;;1.70;;
11731;SDS011;5922;53.734;10.258;2023-01-16T03:57:34;8.87;;;1.90;;
11731;SDS011;5922;53.734;10.258;2023-01-16T04:00:03;7.77;;;1.77;;
11731;SDS011;5922;53.734;10.258;2023-01-16T04:02:32;3.90;;;1.50;;
11731;SDS011;5922;53.734;10.258;2023-01-16T04:05:03;3.33;;;1.70;;
11731;SDS011;5922;53.734;10.258;2023-01-16T04:07:36;2.70;;;1.70;;
11731;SDS011;5922;53.734;10.258;2023-01-16T04:10:06;2.80;;;1.50;;
11731;SDS011;5922;53.734;10.258;2023-01-16T04:12:36;3.10;;;2.00;;
11731;SDS011;5922;53.734;10.258;2023-01-16T04:15:05;3.23;;;1.67;;
11731;SDS011;5922;53.734;10.258;2023-01-16T04:17:33;2.43;;;1.50;;
11731;SDS011;5922;53.734;10.258;2023-01-16T04:20:01;2.80;;;1.37;;
11731;SDS011;5922;53.734;10.258;2023-01-16T04:22:28;2.53;;;1.60;;
11731;SDS011;5922;53.734;10.258;2023-01-16T04:24:58;4.73;;;1.90;;
11731;SDS011;5922;53.734;10.258;2023-01-16T04:27:25;3.90;;;1.70;;
11731;SDS011;5922;53.734;10.258;2023-01-16T04:29:53;3.13;;;1.67;;
11731;SDS011;5922;53.734;10.258;2023-01-16T04:32:20;3.73;;;1.43;;
11731;SDS011;5922;53.734;10.258;2023-01-16T04:34:47;1.57;;;1.40;;
11731;SDS011;5922;53.734;10.258;2023-01-16T04:37:16;2.43;;;1.50;;
11731;SDS011;5922;53.734;10.258;2023-01-16T04:39:43;3.67;;;1.77;;
11731;SDS011;5922;53.734;10.258;2023-01-16T04:42:13;4.20;;;1.70;;
11731;SDS011;5922;53.734;10.258;2023-01-16T04:44:41;2.50;;;1.30;;
11731;SDS011;5922;53.734;10.258;2023-01-16T04:47:08;2.80;;;1.70;;
11731;SDS011;5922;53.734;10.258;2023-01-16T04:49:35;3.63;;;1.57;;
11731;SDS011;5922;53.734;10.258;2023-01-16T04:52:02;5.40;;;1.70;;
11731;SDS011;5922;53.734;10.258;2023-01-16T04:54:30;3.57;;;1.50;;
11731;SDS011;5922;53.734;10.258;2023-01-16T04:56:57;4.27;;;1.57;;
11731;SDS011;5922;53.734;10.258;2023-01-16T04:59:27;3.77;;;1.40;;
11731;SDS011;5922;53.734;10.258;2023-01-16T05:01:54;2.60;;;1.57;;
11731;SDS011;5922;53.734;10.258;2023-01-16T05:04:21;2.73;;;1.30;;
11731;SDS011;5922;53.734;10.258;2023-01-16T05:06:49;1.20;;;1.10;;
11731;SDS011;5922;53.734;10.258;2023-01-16T05:09:16;3.93;;;1.70;;
11731;SDS011;5922;53.734;10.258;2023-01-16T05:11:43;4.00;;;1.77;;
11731;SDS011;5922;53.734;10.258;2023-01-16T05:14:10;3.17;;;1.40;;
11731;SDS011;5922;53.734;10.258;2023-01-16T05:16:39;3.80;;;1.87;;
11731;SDS011;5922;53.734;10.258;2023-01-16T05:19:07;2.07;;;1.20;;
11731;SDS011;5922;53.734;10.258;2023-01-16T05:21:34;5.13;;;1.67;;
11731;SDS011;5922;53.734;10.258;2023-01-16T05:24:02;4.20;;;1.90;;
11731;SDS011;5922;53.734;10.258;2023-01-16T05:26:29;5.87;;;2.10;;
11731;SDS011;5922;53.734;10.258;2023-01-16T05:28:57;4.13;;;2.00;;
11731;SDS011;5922;53.734;10.258;2023-01-16T05:31:24;4.47;;;1.63;;
11731;SDS011;5922;53.734;10.258;2023-01-16T05:33:52;3.80;;;1.40;;
11731;SDS011;5922;53.734;10.258;2023-01-16T05:36:20;2.43;;;1.53;;
11731;SDS011;5922;53.734;10.258;2023-01-16T05:38:47;3.83;;;1.60;;
11731;SDS011;5922;53.734;10.258;2023-01-16T05:41:15;3.40;;;1.40;;
11731;SDS011;5922;53.734;10.258;2023-01-16T05:43:43;2.83;;;1.60;;
11731;SDS011;5922;53.734;10.258;2023-01-16T05:46:10;6.07;;;1.53;;
11731;SDS011;5922;53.734;10.258;2023-01-16T05:48:37;2.37;;;1.30;;
11731;SDS011;5922;53.734;10.258;2023-01-16T05:51:06;1.93;;;1.37;;
11731;SDS011;5922;53.734;10.258;2023-01-16T05:53:33;4.90;;;1.40;;
11731;SDS011;5922;53.734;10.258;2023-01-16T05:56:05;2.80;;;1.67;;
11731;SDS011;5922;53.734;10.258;2023-01-16T05:58:32;3.77;;;1.43;;
11731;SDS011;5922;53.734;10.258;2023-01-16T06:01:00;2.97;;;1.17;;
11731;SDS011;5922;53.734;10.258;2023-01-16T06:03:27;3.03;;;1.00;;
11731;SDS011;5922;53.734;10.258;2023-01-16T06:05:54;5.10;;;1.90;;
11731;SDS011;5922;53.734;10.258;2023-01-16T06:08:25;4.30;;;1.67;;
11731;SDS011;5922;53.734;10.258;2023-01-16T06:10:52;6.10;;;1.60;;
11731;SDS011;5922;53.734;10.258;2023-01-16T06:13:19;3.67;;;1.40;;
11731;SDS011;5922;53.734;10.258;2023-01-16T06:15:47;4.20;;;1.40;;
11731;SDS011;5922;53.734;10.258;2023-01-16T06:18:14;2.70;;;1.50;;
11731;SDS011;5922;53.734;10.258;2023-01-16T06:20:41;3.33;;;1.20;;
11731;SDS011;5922;53.734;10.258;2023-01-16T06:23:09;3.10;;;1.20;;
11731;SDS011;5922;53.734;10.258;2023-01-16T06:25:37;1.83;;;1.07;;
11731;SDS011;5922;53.734;10.258;2023-01-16T06:28:05;2.00;;;1.20;;
11731;SDS011;5922;53.734;10.258;2023-01-16T06:30:32;3.17;;;1.30;;
11731;SDS011;5922;53.734;10.258;2023-01-16T06:33:00;5.47;;;1.30;;
11731;SDS011;5922;53.734;10.258;2023-01-16T06:35:27;3.13;;;1.57;;
11731;SDS011;5922;53.734;10.258;2023-01-16T06:37:54;4.03;;;1.40;;
11731;SDS011;5922;53.734;10.258;2023-01-16T06:40:21;6.63;;;1.43;;
11731;SDS011;5922;53.734;10.258;2023-01-16T06:42:50;2.83;;;1.30;;
11731;SDS011;5922;53.734;10.258;2023-01-16T06:45:17;3.23;;;1.77;;
11731;SDS011;5922;53.734;10.258;2023-01-16T06:47:50;3.70;;;1.30;;
11731;SDS011;5922;53.734;10.258;2023-01-16T06:50:17;4.03;;;1.30;;
11731;SDS011;5922;53.734;10.258;2023-01-16T06:52:44;2.43;;;1.10;;
11731;SDS011;5922;53.734;10.258;2023-01-16T06:55:11;4.13;;;1.47;;
11731;SDS011;5922;53.734;10.258;2023-01-16T06:57:38;4.53;;;1.83;;
11731;SDS011;5922;53.734;10.258;2023-01-16T07:00:08;2.40;;;1.23;;
11731;SDS011;5922;53.734;10.258;2023-01-16T07:02:35;3.00;;;1.30;;
11731;SDS011;5922;53.734;10.258;2023-01-16T07:05:05;3.50;;;1.30;;
11731;SDS011;5922;53.734;10.258;2023-01-16T07:07:32;3.30;;;1.13;;
11731;SDS011;5922;53.734;10.258;2023-01-16T07:09:59;2.97;;;1.50;;
11731;SDS011;5922;53.734;10.258;2023-01-16T07:12:27;4.80;;;1.73;;
11731;SDS011;5922;53.734;10.258;2023-01-16T07:14:54;3.00;;;1.30;;
11731;SDS011;5922;53.734;10.258;2023-01-16T07:17:40;3.13;;;1.30;;
11731;SDS011;5922;53.734;10.258;2023-01-16T07:20:25;2.97;;;1.50;;
11731;SDS011;5922;53.734;10.258;2023-01-16T07:23:13;3.70;;;1.37;;
11731;SDS011;5922;53.734;10.258;2023-01-16T07:25:41;3.90;;;1.07;;
11731;SDS011;5922;53.734;10.258;2023-01-16T07:28:09;1.83;;;0.87;;
11731;SDS011;5922;53.734;10.258;2023-01-16T07:30:36;4.83;;;1.23;;
11731;SDS011;5922;53.734;10.258;2023-01-16T07:33:05;2.57;;;1.20;;
11731;SDS011;5922;53.734;10.258;2023-01-16T07:35:32;1.80;;;1.10;;
11731;SDS011;5922;53.734;10.258;2023-01-16T07:37:59;2.20;;;1.20;;
11731;SDS011;5922;53.734;10.258;2023-01-16T07:40:27;6.67;;;1.30;;
11731;SDS011;5922;53.734;10.258;2023-01-16T07:42:54;1.77;;;1.20;;
11731;SDS011;5922;53.734;10.258;2023-01-16T07:45:21;3.57;;;1.67;;
11731;SDS011;5922;53.734;10.258;2023-01-16T07:47:48;5.80;;;1.60;;
11731;SDS011;5922;53.734;10.258;2023-01-16T07:50:17;2.60;;;1.23;;
11731;SDS011;5922;53.734;10.258;2023-01-16T07:52:45;6.37;;;1.63;;
11731;SDS011;5922;53.734;10.258;2023-01-16T07:55:12;2.03;;;1.30;;
11731;SDS011;5922;53.734;10.258;2023-01-16T07:57:40;3.93;;;1.50;;
11731;SDS011;5922;53.734;10.258;2023-01-16T08:00:08;4.87;;;1.40;;
11731;SDS011;5922;53.734;10.258;2023-01-16T08:02:36;1.27;;;1.10;;
11731;SDS011;5922;53.734;10.258;2023-01-16T08:05:03;1.67;;;1.27;;
11731;SDS011;5922;53.734;10.258;2023-01-16T08:07:32;2.97;;;1.30;;
11731;SDS011;5922;53.734;10.258;2023-01-16T08:09:59;2.27;;;1.30;;
11731;SDS011;5922;53.734;10.258;2023-01-16T08:12:26;1.80;;;1.03;;
11731;SDS011;5922;53.734;10.258;2023-01-16T08:14:54;2.17;;;1.40;;
11731;SDS011;5922;53.734;10.258;2023-01-16T08:17:21;3.37;;;1.23;;
11731;SDS011;5922;53.734;10.258;2023-01-16T08:19:48;4.10;;;1.37;;
11731;SDS011;5922;53.734;10.258;2023-01-16T08:22:15;1.63;;;1.23;;
11731;SDS011;5922;53.734;10.258;2023-01-16T08:24:44;5.23;;;1.10;;
11731;SDS011;5922;53.734;10.258;2023-01-16T08:27:11;1.90;;;1.10;;
11731;SDS011;5922;53.734;10.258;2023-01-16T08:29:38;3.20;;;1.57;;
11731;SDS011;5922;53.734;10.258;2023-01-16T08:32:05;4.87;;;1.27;;
11731;SDS011;5922;53.734;10.258;2023-01-16T08:34:34;4.50;;;1.60;;
11731;SDS011;5922;53.734;10.258;2023-01-16T08:37:01;6.50;;;1.90;;
11731;SDS011;5922;53.734;10.258;2023-01-16T08:39:29;2.70;;;1.30;;
11731;SDS011;5922;53.734;10.258;2023-01-16T08:41:58;4.53;;;1.37;;
11731;SDS011;5922;53.734;10.258;2023-01-16T08:44:43;2.57;;;1.10;;
11731;SDS011;5922;53.734;10.258;2023-01-16T08:47:27;3.17;;;1.40;;
11731;SDS011;5922;53.734;10.258;2023-01-16T08:50:21;2.47;;;1.30;;
11731;SDS011;5922;53.734;10.258;2023-01-16T08:53:05;2.90;;;1.40;;
11731;SDS011;5922;53.734;10.258;2023-01-16T08:55:33;3.37;;;1.20;;
11731;SDS011;5922;53.734;10.258;2023-01-16T08:58:01;2.20;;;1.20;;
11731;SDS011;5922;53.734;10.258;2023-01-16T09:00:29;2.80;;;1.20;;
11731;SDS011;5922;53.734;10.258;2023-01-16T09:02:56;3.60;;;1.33;;
11731;SDS011;5922;53.734;10.258;2023-01-16T09:05:24;4.63;;;1.60;;
11731;SDS011;5922;53.734;10.258;2023-01-16T09:07:52;2.63;;;1.13;;
11731;SDS011;5922;53.734;10.258;2023-01-16T09:10:19;2.00;;;1.40;;
11731;SDS011;5922;53.734;10.258;2023-01-16T09:12:46;3.57;;;1.33;;
11731;SDS011;5922;53.734;10.258;2023-01-16T09:15:32;2.87;;;1.33;;
11731;SDS011;5922;53.734;10.258;2023-01-16T09:18:00;2.30;;;1.20;;
11731;SDS011;5922;53.734;10.258;2023-01-16T09:20:27;1.20;;;1.10;;
11731;SDS011;5922;53.734;10.258;2023-01-16T09:22:57;1.40;;;1.30;;
11731;SDS011;5922;53.734;10.258;2023-01-16T09:25:25;2.73;;;1.13;;
11731;SDS011;5922;53.734;10.258;2023-01-16T09:27:52;1.97;;;1.30;;
11731;SDS011;5922;53.734;10.258;2023-01-16T09:30:19;2.87;;;1.33;;
11731;SDS011;5922;53.734;10.258;2023-01-16T09:32:48;1.67;;;1.10;;
11731;SDS011;5922;53.734;10.258;2023-01-16T09:35:15;2.43;;;1.40;;
11731;SDS011;5922;53.734;10.258;2023-01-16T09:37:43;2.43;;;1.20;;
11731;SDS011;5922;53.734;10.258;2023-01-16T09:40:11;2.53;;;1.20;;
11731;SDS011;5922;53.734;10.258;2023-01-16T09:42:43;4.10;;;1.70;;
11731;SDS011;5922;53.734;10.258;2023-01-16T09:45:30;2.90;;;1.27;;
11731;SDS011;5922;53.734;10.258;2023-01-16T09:48:01;2.67;;;1.30;;
11731;SDS011;5922;53.734;10.258;2023-01-16T09:50:31;2.33;;;1.20;;
11731;SDS011;5922;53.734;10.258;2023-01-16T09:52:59;3.83;;;1.47;;
11731;SDS011;5922;53.734;10.258;2023-01-16T09:55:44;2.13;;;1.10;;
11731;SDS011;5922;53.734;10.258;2023-01-16T09:58:30;1.90;;;1.10;;
11731;SDS011;5922;53.734;10.258;2023-01-16T10:01:04;4.60;;;1.20;;
11731;SDS011;5922;53.734;10.258;2023-01-16T10:03:33;1.20;;;1.10;;
11731;SDS011;5922;53.734;10.258;2023-01-16T10:06:08;2.03;;;1.10;;
11731;SDS011;5922;53.734;10.258;2023-01-16T10:08:39;1.77;;;1.20;;
11731;SDS011;5922;53.734;10.258;2023-01-16T10:11:10;2.43;;;1.20;;
11731;SDS011;5922;53.734;10.258;2023-01-16T10:13:46;1.83;;;1.13;;
11731;SDS011;5922;53.734;10.258;2023-01-16T10:16:20;3.53;;;1.00;;
11731;SDS011;5922;53.734;10.258;2023-01-16T10:18:53;2.70;;;1.27;;
11731;SDS011;5922;53.734;10.258;2023-01-16T10:21:27;1.83;;;1.30;;
11731;SDS011;5922;53.734;10.258;2023-01-16T10:24:00;2.20;;;1.00;;
11731;SDS011;5922;53.734;10.258;2023-01-16T10:26:28;4.17;;;1.30;;
11731;SDS011;5922;53.734;10.258;2023-01-16T10:29:01;3.13;;;1.17;;
11731;SDS011;5922;53.734;10.258;2023-01-16T10:31:31;2.87;;;1.30;;
11731;SDS011;5922;53.734;10.258;2023-01-16T10:34:01;1.93;;;1.20;;
11731;SDS011;5922;53.734;10.258;2023-01-16T10:36:31;2.97;;;1.43;;
11731;SDS011;5922;53.734;10.258;2023-01-16T10:39:00;3.10;;;1.33;;
11731;SDS011;5922;53.734;10.258;2023-01-16T10:41:28;3.53;;;1.27;;
11731;SDS011;5922;53.734;10.258;2023-01-16T10:44:27;2.93;;;1.60;;
11731;SDS011;5922;53.734;10.258;2023-01-16T10:47:15;2.37;;;1.13;;
11731;SDS011;5922;53.734;10.258;2023-01-16T10:50:02;3.00;;;1.20;;
11731;SDS011;5922;53.734;10.258;2023-01-16T10:52:29;4.37;;;1.20;;
11731;SDS011;5922;53.734;10.258;2023-01-16T10:54:57;2.93;;;1.20;;
11731;SDS011;5922;53.734;10.258;2023-01-16T10:57:25;1.73;;;1.30;;
11731;SDS011;5922;53.734;10.258;2023-01-16T10:59:54;2.33;;;1.13;;
11731;SDS011;5922;53.734;10.258;2023-01-16T11:02:24;1.63;;;1.20;;
11731;SDS011;5922;53.734;10.258;2023-01-16T11:04:54;3.23;;;1.30;;
11731;SDS011;5922;53.734;10.258;2023-01-16T11:07:25;3.63;;;1.40;;
11731;SDS011;5922;53.734;10.258;2023-01-16T11:09:53;3.27;;;1.40;;
11731;SDS011;5922;53.734;10.258;2023-01-16T11:12:22;2.13;;;1.17;;
11731;SDS011;5922;53.734;10.258;2023-01-16T11:15:14;2.00;;;1.23;;
11731;SDS011;5922;53.734;10.258;2023-01-16T11:17:59;1.70;;;1.00;;
11731;SDS011;5922;53.734;10.258;2023-01-16T11:20:44;4.57;;;1.53;;
11731;SDS011;5922;53.734;10.258;2023-01-16T11:23:17;1.97;;;1.23;;
11731;SDS011;5922;53.734;10.258;2023-01-16T11:25:45;1.70;;;1.30;;
11731;SDS011;5922;53.734;10.258;2023-01-16T11:28:13;3.00;;;1.57;;
11731;SDS011;5922;53.734;10.258;2023-01-16T11:30:44;3.70;;;1.50;;
11731;SDS011;5922;53.734;10.258;2023-01-16T11:33:13;2.40;;;1.37;;
11731;SDS011;5922;53.734;10.258;2023-01-16T11:35:41;3.33;;;1.20;;
11731;SDS011;5922;53.734;10.258;2023-01-16T11:38:11;5.40;;;1.80;;
11731;SDS011;5922;53.734;10.258;2023-01-16T11:40:44;3.43;;;1.20;;
11731;SDS011;5922;53.734;10.258;2023-01-16T11:43:13;2.77;;;1.27;;
11731;SDS011;5922;53.734;10.258;2023-01-16T11:45:58;2.57;;;1.20;;
11731;SDS011;5922;53.734;10.258;2023-01-16T11:48:39;1.47;;;1.37;;
11731;SDS011;5922;53.734;10.258;2023-01-16T11:51:10;1.70;;;1.20;;
11731;SDS011;5922;53.734;10.258;2023-01-16T11:53:38;2.50;;;1.53;;
11731;SDS011;5922;53.734;10.258;2023-01-16T11:56:23;2.27;;;1.40;;
11731;SDS011;5922;53.734;10.258;2023-01-16T11:58:57;2.60;;;1.37;;
11731;SDS011;5922;53.734;10.258;2023-01-16T12:01:32;4.33;;;1.30;;
11731;SDS011;5922;53.734;10.258;2023-01-16T12:04:22;3.03;;;1.37;;
11731;SDS011;5922;53.734;10.258;2023-01-16T12:06:52;1.87;;;1.00;;
11731;SDS011;5922;53.734;10.258;2023-01-16T12:09:34;2.67;;;1.33;;
11731;SDS011;5922;53.734;10.258;2023-01-16T12:12:13;1.80;;;1.40;;
11731;SDS011;5922;53.734;10.258;2023-01-16T12:15:02;2.10;;;1.23;;
11731;SDS011;5922;53.734;10.258;2023-01-16T12:17:31;2.07;;;1.27;;
11731;SDS011;5922;53.734;10.258;2023-01-16T12:20:10;3.13;;;1.60;;
11731;SDS011;5922;53.734;10.258;2023-01-16T12:22:49;1.43;;;1.20;;
11731;SDS011;5922;53.734;10.258;2023-01-16T12:25:21;6.50;;;1.43;;
11731;SDS011;5922;53.734;10.258;2023-01-16T12:27:54;4.57;;;1.40;;
11731;SDS011;5922;53.734;10.258;2023-01-16T12:30:25;6.43;;;1.50;;
11731;SDS011;5922;53.734;10.258;2023-01-16T12:32:58;3.10;;;1.50;;
11731;SDS011;5922;53.734;10.258;2023-01-16T12:35:37;2.77;;;1.40;;
11731;SDS011;5922;53.734;10.258;2023-01-16T12:38:10;3.43;;;1.47;;
11731;SDS011;5922;53.734;10.258;2023-01-16T12:40:52;3.20;;;1.80;;
11731;SDS011;5922;53.734;10.258;2023-01-16T12:43:45;2.77;;;1.20;;
11731;SDS011;5922;53.734;10.258;2023-01-16T12:46:15;3.73;;;1.20;;
11731;SDS011;5922;53.734;10.258;2023-01-16T12:48:50;4.27;;;1.40;;
11731;SDS011;5922;53.734;10.258;2023-01-16T12:51:24;1.47;;;1.23;;
11731;SDS011;5922;53.734;10.258;2023-01-16T12:53:59;3.67;;;1.30;;
11731;SDS011;5922;53.734;10.258;2023-01-16T12:56:32;6.50;;;1.20;;
11731;SDS011;5922;53.734;10.258;2023-01-16T12:59:09;2.27;;;1.10;;
11731;SDS011;5922;53.734;10.258;2023-01-16T13:01:38;1.23;;;1.10;;
11731;SDS011;5922;53.734;10.258;2023-01-16T13:04:09;1.60;;;1.20;;
11731;SDS011;5922;53.734;10.258;2023-01-16T13:06:38;2.63;;;1.20;;
11731;SDS011;5922;53.734;10.258;2023-01-16T13:09:10;2.67;;;1.40;;
11731;SDS011;5922;53.734;10.258;2023-01-16T13:11:46;2.33;;;1.20;;
11731;SDS011;5922;53.734;10.258;2023-01-16T13:14:33;3.00;;;1.30;;
11731;SDS011;5922;53.734;10.258;2023-01-16T13:17:01;1.73;;;1.30;;
11731;SDS011;5922;53.734;10.258;2023-01-16T13:19:32;3.13;;;1.27;;
11731;SDS011;5922;53.734;10.258;2023-01-16T13:22:02;1.50;;;1.20;;
11731;SDS011;5922;53.734;10.258;2023-01-16T13:24:32;1.57;;;0.90;;
11731;SDS011;5922;53.734;10.258;2023-01-16T13:27:01;1.53;;;1.30;;
11731;SDS011;5922;53.734;10.258;2023-01-16T13:29:31;2.37;;;1.33;;
11731;SDS011;5922;53.734;10.258;2023-01-16T13:32:05;0.97;;;0.97;;
11731;SDS011;5922;53.734;10.258;2023-01-16T13:34:34;1.73;;;1.17;;
11731;SDS011;5922;53.734;10.258;2023-01-16T13:37:13;4.93;;;1.50;;
11731;SDS011;5922;53.734;10.258;2023-01-16T13:42:25;1.27;;;1.00;;
11731;SDS011;5922;53.734;10.258;2023-01-16T13:44:54;2.93;;;1.20;;
11731;SDS011;5922;53.734;10.258;2023-01-16T13:47:42;2.10;;;1.30;;
11731;SDS011;5922;53.734;10.258;2023-01-16T13:50:15;3.17;;;1.40;;
11731;SDS011;5922;53.734;10.258;2023-01-16T13:52:43;3.17;;;1.20;;
11731;SDS011;5922;53.734;10.258;2023-01-16T13:55:17;2.10;;;1.37;;
11731;SDS011;5922;53.734;10.258;2023-01-16T13:57:48;1.83;;;1.40;;
11731;SDS011;5922;53.734;10.258;2023-01-16T14:00:15;2.80;;;1.30;;
11731;SDS011;5922;53.734;10.258;2023-01-16T14:03:00;2.67;;;1.57;;
11731;SDS011;5922;53.734;10.258;2023-01-16T14:05:41;1.63;;;1.40;;
11731;SDS011;5922;53.734;10.258;2023-01-16T14:08:17;3.57;;;1.57;;
11731;SDS011;5922;53.734;10.258;2023-01-16T14:11:03;2.37;;;1.60;;
11731;SDS011;5922;53.734;10.258;2023-01-16T14:13:31;2.53;;;1.50;;
11731;SDS011;5922;53.734;10.258;2023-01-16T14:15:59;5.33;;;1.77;;
11731;SDS011;5922;53.734;10.258;2023-01-16T14:18:58;6.13;;;1.67;;
11731;SDS011;5922;53.734;10.258;2023-01-16T14:21:26;2.80;;;1.30;;
11731;SDS011;5922;53.734;10.258;2023-01-16T14:23:56;2.63;;;1.37;;
11731;SDS011;5922;53.734;10.258;2023-01-16T14:26:31;3.67;;;1.47;;
11731;SDS011;5922;53.734;10.258;2023-01-16T14:29:00;3.57;;;1.43;;
11731;SDS011;5922;53.734;10.258;2023-01-16T14:31:33;3.13;;;1.07;;
11731;SDS011;5922;53.734;10.258;2023-01-16T14:34:04;2.10;;;1.40;;
11731;SDS011;5922;53.734;10.258;2023-01-16T14:36:32;4.40;;;1.63;;
11731;SDS011;5922;53.734;10.258;2023-01-16T14:39:00;2.73;;;1.23;;
11731;SDS011;5922;53.734;10.258;2023-01-16T14:41:28;3.87;;;1.73;;
11731;SDS011;5922;53.734;10.258;2023-01-16T14:44:15;3.97;;;1.60;;
11731;SDS011;5922;53.734;10.258;2023-01-16T14:50:07;3.63;;;1.50;;
11731;SDS011;5922;53.734;10.258;2023-01-16T14:52:56;3.93;;;1.70;;
11731;SDS011;5922;53.734;10.258;2023-01-16T14:55:43;2.53;;;1.20;;
11731;SDS011;5922;53.734;10.258;2023-01-16T14:58:13;3.50;;;1.43;;
11731;SDS011;5922;53.734;10.258;2023-01-16T15:00:42;2.37;;;1.30;;
11731;SDS011;5922;53.734;10.258;2023-01-16T15:03:10;4.23;;;1.30;;
11731;SDS011;5922;53.734;10.258;2023-01-16T15:05:41;2.10;;;1.53;;
11731;SDS011;5922;53.734;10.258;2023-01-16T15:08:27;2.20;;;1.47;;
11731;SDS011;5922;53.734;10.258;2023-01-16T15:10:55;3.27;;;1.90;;
11731;SDS011;5922;53.734;10.258;2023-01-16T15:13:23;2.80;;;1.47;;
11731;SDS011;5922;53.734;10.258;2023-01-16T15:15:52;3.27;;;1.20;;
11731;SDS011;5922;53.734;10.258;2023-01-16T15:18:20;1.80;;;1.23;;
11731;SDS011;5922;53.734;10.258;2023-01-16T15:21:11;2.60;;;1.30;;
11731;SDS011;5922;53.734;10.258;2023-01-16T15:23:59;4.77;;;1.77;;
11731;SDS011;5922;53.734;10.258;2023-01-16T15:29:20;6.20;;;1.60;;